Time;durP1;ratioP1;P1;durP2;ratioP2;P2;SDS_P1;SDS_P2;PMS_P1;PMS_P2;Temp;Humidity;BMP_temperature;BMP_pressure;BME280_temperature;BME280_humidity;BME280_pressure;Samples;Min_cycle;Max_cycle;Signal;HPM_P1;HPM_P2
2023/06/14 00:01:48;;;;;;;3.95;1.83;;;;;;;;;;5055201;28;20016;-64
2023/06/14 00:04:16;;;;;;;3.90;1.65;;;;;;;;;;5055046;28;20045;-64
2023/06/14 00:06:45;;;;;;;5.40;1.85;;;;;;;;;;5053073;28;20045;-64
2023/06/14 00:09:12;;;;;;;8.07;1.73;;;;;;;;;;5055561;28;20101;-63
2023/06/14 00:11:37;;;;;;;6.88;2.00;;;;;;;;;;5055155;28;20029;-63
2023/06/14 00:14:03;;;;;;;7.07;1.70;;;;;;;;;;5052890;28;20020;-63
2023/06/14 00:16:29;;;;;;;7.93;1.90;;;;;;;;;;5054150;28;20082;-63
2023/06/14 00:18:54;;;;;;;6.13;1.83;;;;;;;;;;5052717;28;20033;-64
2023/06/14 00:21:19;;;;;;;9.02;2.13;;;;;;;;;;5055312;28;20024;-64
2023/06/14 00:23:45;;;;;;;7.15;1.83;;;;;;;;;;5056530;28;20078;-63
2023/06/14 00:26:11;;;;;;;4.85;1.92;;;;;;;;;;5052895;28;20047;-63
2023/06/14 00:28:36;;;;;;;5.97;1.80;;;;;;;;;;5057008;28;20033;-63
2023/06/14 00:31:01;;;;;;;7.20;2.25;;;;;;;;;;5056272;28;20024;-63
2023/06/14 00:33:26;;;;;;;5.40;1.80;;;;;;;;;;5052629;28;20039;-63
2023/06/14 00:35:53;;;;;;;6.43;2.00;;;;;;;;;;5057361;28;20036;-63
2023/06/14 00:38:19;;;;;;;7.27;2.07;;;;;;;;;;5052718;28;20396;-63
2023/06/14 00:40:44;;;;;;;6.33;1.80;;;;;;;;;;5052956;28;20032;-64
2023/06/14 00:43:09;;;;;;;4.80;1.83;;;;;;;;;;5053959;28;20027;-64
2023/06/14 00:45:35;;;;;;;5.83;1.90;;;;;;;;;;5059400;28;20587;-63
2023/06/14 00:48:02;;;;;;;6.13;1.93;;;;;;;;;;5055904;28;20048;-63
2023/06/14 00:50:27;;;;;;;4.97;1.90;;;;;;;;;;5052034;28;20470;-63
2023/06/14 00:52:53;;;;;;;5.40;1.90;;;;;;;;;;5066234;28;20035;-63
2023/06/14 00:55:18;;;;;;;5.97;2.10;;;;;;;;;;5056591;28;20051;-63
2023/06/14 00:57:43;;;;;;;6.53;2.43;;;;;;;;;;5053894;28;20127;-63
2023/06/14 01:03:13;;;;;;;5.37;2.00;;;;;;;;;;5060469;22;20398;-90
2023/06/14 01:05:39;;;;;;;4.33;2.03;;;;;;;;;;5027795;28;20042;-91
2023/06/14 01:08:10;;;;;;;5.93;2.20;;;;;;;;;;5032531;28;20394;-90
2023/06/14 01:10:53;;;;;;;4.50;2.00;;;;;;;;;;5015123;28;20018;-90
2023/06/14 01:13:38;;;;;;;5.20;2.10;;;;;;;;;;5014333;28;20029;-89
2023/06/14 01:16:05;;;;;;;5.00;2.23;;;;;;;;;;5027029;28;20077;-90
2023/06/14 01:18:30;;;;;;;6.87;3.17;;;;;;;;;;5014858;28;20048;-89
2023/06/14 01:20:55;;;;;;;7.10;2.40;;;;;;;;;;5015250;28;20075;-90
2023/06/14 01:23:21;;;;;;;12.57;2.20;;;;;;;;;;5033797;28;20022;-90
2023/06/14 01:25:47;;;;;;;6.63;2.40;;;;;;;;;;5028718;28;20038;-90
2023/06/14 01:28:14;;;;;;;5.20;2.00;;;;;;;;;;5030239;28;20053;-89
2023/06/14 01:30:44;;;;;;;5.83;2.00;;;;;;;;;;5027943;28;20474;-89
2023/06/14 01:33:12;;;;;;;4.93;2.07;;;;;;;;;;5028954;28;20049;-91
2023/06/14 01:35:37;;;;;;;6.00;2.40;;;;;;;;;;5028010;28;20033;-90
2023/06/14 01:38:03;;;;;;;6.73;2.20;;;;;;;;;;5030692;28;20068;-91
2023/06/14 01:40:30;;;;;;;4.70;2.53;;;;;;;;;;5030905;28;20022;-89
2023/06/14 01:42:56;;;;;;;7.40;3.37;;;;;;;;;;5029242;28;20029;-89
2023/06/14 01:45:21;;;;;;;4.53;2.50;;;;;;;;;;5028251;28;20095;-87
2023/06/14 01:47:47;;;;;;;8.77;2.43;;;;;;;;;;5012613;28;20025;-89
2023/06/14 01:50:12;;;;;;;6.33;2.33;;;;;;;;;;5012387;28;20052;-89
2023/06/14 01:52:38;;;;;;;6.97;2.50;;;;;;;;;;5010795;28;20017;-90
2023/06/14 01:55:07;;;;;;;5.60;2.47;;;;;;;;;;5029981;28;20025;-89
2023/06/14 01:57:33;;;;;;;8.10;2.50;;;;;;;;;;5030019;28;20029;-89
2023/06/14 01:59:58;;;;;;;7.67;2.77;;;;;;;;;;5030257;28;20032;-89
2023/06/14 02:02:23;;;;;;;6.50;2.50;;;;;;;;;;5029471;28;20041;-90
2023/06/14 02:04:49;;;;;;;5.43;2.40;;;;;;;;;;5022258;28;20045;-89
2023/06/14 02:07:14;;;;;;;6.60;2.67;;;;;;;;;;5010206;28;20032;-89
2023/06/14 02:09:40;;;;;;;6.27;2.77;;;;;;;;;;5007308;28;20072;-89
2023/06/14 02:12:06;;;;;;;5.83;2.33;;;;;;;;;;5018878;28;20507;-88
2023/06/14 02:14:31;;;;;;;6.50;2.60;;;;;;;;;;5026614;28;20029;-89
2023/06/14 02:16:56;;;;;;;8.37;2.67;;;;;;;;;;5015876;28;20034;-88
2023/06/14 02:19:22;;;;;;;4.53;2.47;;;;;;;;;;5028947;28;20029;-89
2023/06/14 02:21:47;;;;;;;6.80;2.63;;;;;;;;;;5026880;28;20036;-89
2023/06/14 02:24:12;;;;;;;7.13;3.23;;;;;;;;;;5020169;28;20042;-88
2023/06/14 02:26:38;;;;;;;7.67;2.33;;;;;;;;;;5030939;28;20033;-89
2023/06/14 02:29:05;;;;;;;10.87;2.60;;;;;;;;;;5019153;28;20079;-89
2023/06/14 02:31:30;;;;;;;7.53;2.80;;;;;;;;;;5004409;28;20021;-89
2023/06/14 02:33:56;;;;;;;6.33;2.70;;;;;;;;;;5027237;28;20028;-89
2023/06/14 02:36:21;;;;;;;6.20;3.03;;;;;;;;;;5031211;28;20029;-88
2023/06/14 02:38:47;;;;;;;8.00;2.90;;;;;;;;;;5014985;28;20121;-89
2023/06/14 02:41:12;;;;;;;4.60;2.80;;;;;;;;;;5019568;28;20113;-89
2023/06/14 02:43:38;;;;;;;4.63;2.60;;;;;;;;;;5012496;28;20087;-89
2023/06/14 02:46:03;;;;;;;5.73;2.83;;;;;;;;;;5020184;28;20030;-90
2023/06/14 02:48:29;;;;;;;7.23;3.17;;;;;;;;;;5031518;28;20014;-95
2023/06/14 02:50:54;;;;;;;8.27;2.80;;;;;;;;;;5037350;28;20029;-95
2023/06/14 02:53:20;;;;;;;8.10;3.20;;;;;;;;;;5029986;28;20084;-94
2023/06/14 02:55:46;;;;;;;6.23;2.90;;;;;;;;;;5012876;28;20017;-95
2023/06/14 02:58:12;;;;;;;8.23;3.20;;;;;;;;;;5027766;28;20049;-96
2023/06/14 03:00:38;;;;;;;8.20;3.07;;;;;;;;;;5035500;28;20105;-95
2023/06/14 03:03:12;;;;;;;6.67;3.20;;;;;;;;;;5036512;28;20041;-94
2023/06/14 03:05:40;;;;;;;7.63;3.00;;;;;;;;;;5011471;28;20041;-94
2023/06/14 03:08:06;;;;;;;9.80;3.17;;;;;;;;;;5005436;28;20041;-94
2023/06/14 03:10:39;;;;;;;9.67;3.10;;;;;;;;;;5025093;28;20052;-96
2023/06/14 03:13:05;;;;;;;8.37;3.00;;;;;;;;;;5042498;28;20017;-95
2023/06/14 03:15:31;;;;;;;8.87;3.10;;;;;;;;;;5026425;28;20033;-94
2023/06/14 03:17:56;;;;;;;8.30;3.13;;;;;;;;;;5034386;28;20029;-95
2023/06/14 03:20:23;;;;;;;8.40;3.50;;;;;;;;;;5040012;28;20026;-94
2023/06/14 03:22:49;;;;;;;8.73;3.37;;;;;;;;;;5013657;28;20040;-94
2023/06/14 03:25:15;;;;;;;7.60;2.90;;;;;;;;;;5035039;28;20081;-95
2023/06/14 03:27:40;;;;;;;6.73;3.30;;;;;;;;;;5044934;28;20025;-94
2023/06/14 03:30:06;;;;;;;7.60;3.07;;;;;;;;;;5019798;28;20468;-96
2023/06/14 03:32:33;;;;;;;6.37;2.90;;;;;;;;;;5029694;28;20017;-94
2023/06/14 03:34:59;;;;;;;5.53;3.00;;;;;;;;;;5038662;28;20375;-94
2023/06/14 03:37:25;;;;;;;5.90;2.80;;;;;;;;;;5037851;28;20029;-96
2023/06/14 03:39:50;;;;;;;6.43;2.73;;;;;;;;;;5039737;28;20052;-96
2023/06/14 03:42:15;;;;;;;6.13;2.80;;;;;;;;;;5029536;28;20056;-95
2023/06/14 03:44:41;;;;;;;5.87;2.80;;;;;;;;;;5032256;28;20463;-95
2023/06/14 03:47:06;;;;;;;7.93;3.10;;;;;;;;;;5033341;28;20018;-94
2023/06/14 03:49:31;;;;;;;10.57;2.77;;;;;;;;;;5032729;28;20028;-94
2023/06/14 03:51:57;;;;;;;7.53;3.20;;;;;;;;;;5034025;28;20022;-93
2023/06/14 03:54:22;;;;;;;6.53;2.80;;;;;;;;;;5034636;28;20026;-94
2023/06/14 03:56:47;;;;;;;6.43;3.00;;;;;;;;;;5023846;28;20498;-93
2023/06/14 03:59:13;;;;;;;6.83;2.80;;;;;;;;;;5031519;28;20029;-94
2023/06/14 04:01:44;;;;;;;5.70;2.70;;;;;;;;;;5032487;28;20378;-96
2023/06/14 04:04:10;;;;;;;10.23;3.05;;;;;;;;;;5012435;28;20045;-95
2023/06/14 04:06:36;;;;;;;6.40;2.80;;;;;;;;;;5029107;28;20037;-94
2023/06/14 04:09:02;;;;;;;5.15;2.85;;;;;;;;;;5034248;28;20094;-92
2023/06/14 04:11:27;;;;;;;8.70;3.00;;;;;;;;;;5020416;28;20058;-93
2023/06/14 04:13:53;;;;;;;7.03;2.80;;;;;;;;;;5035107;28;20100;-91
2023/06/14 04:16:19;;;;;;;5.43;2.70;;;;;;;;;;5032811;28;20089;-91
2023/06/14 04:18:44;;;;;;;10.05;2.97;;;;;;;;;;5025640;28;20022;-93
2023/06/14 04:21:09;;;;;;;5.80;2.80;;;;;;;;;;5012470;28;20092;-92
2023/06/14 04:23:35;;;;;;;6.45;2.65;;;;;;;;;;5024279;28;20025;-93
2023/06/14 04:26:02;;;;;;;5.70;2.63;;;;;;;;;;5017393;28;20033;-93
2023/06/14 04:28:27;;;;;;;6.40;2.83;;;;;;;;;;5025752;28;20022;-93
2023/06/14 04:30:53;;;;;;;6.35;2.83;;;;;;;;;;5025715;28;20010;-90
2023/06/14 04:33:18;;;;;;;6.65;2.92;;;;;;;;;;5021916;28;20472;-90
2023/06/14 04:35:47;;;;;;;5.68;2.55;;;;;;;;;;5026451;28;20022;-94
2023/06/14 04:38:12;;;;;;;8.90;2.90;;;;;;;;;;5035758;28;20029;-92
2023/06/14 04:40:42;;;;;;;6.97;2.40;;;;;;;;;;5028700;28;20475;-91
2023/06/14 04:43:08;;;;;;;6.43;2.60;;;;;;;;;;5008465;28;20022;-92
2023/06/14 04:45:33;;;;;;;8.93;2.65;;;;;;;;;;5021355;28;20025;-91
2023/06/14 04:47:59;;;;;;;6.55;2.60;;;;;;;;;;5024491;28;20471;-92
2023/06/14 04:50:24;;;;;;;6.45;2.58;;;;;;;;;;5035387;28;20010;-90
2023/06/14 04:52:51;;;;;;;6.97;2.88;;;;;;;;;;5029740;28;20022;-91
2023/06/14 04:55:16;;;;;;;7.13;2.60;;;;;;;;;;5017430;28;20365;-93
2023/06/14 04:57:41;;;;;;;5.88;2.58;;;;;;;;;;5024200;28;20025;-90
2023/06/14 05:00:11;;;;;;;7.20;2.80;;;;;;;;;;5004793;28;20018;-89
2023/06/14 05:02:37;;;;;;;5.93;2.60;;;;;;;;;;5023172;28;20014;-91
2023/06/14 05:05:02;;;;;;;6.07;2.78;;;;;;;;;;5030730;28;20091;-89
2023/06/14 05:07:28;;;;;;;5.85;2.70;;;;;;;;;;5029979;28;20096;-91
2023/06/14 05:09:53;;;;;;;11.40;2.33;;;;;;;;;;5008133;28;20025;-90
2023/06/14 05:12:18;;;;;;;4.78;2.80;;;;;;;;;;5024495;28;20479;-90
2023/06/14 05:14:44;;;;;;;4.68;2.35;;;;;;;;;;5026215;28;20017;-87
2023/06/14 05:17:09;;;;;;;6.60;2.60;;;;;;;;;;5010965;28;20022;-90
2023/06/14 05:19:35;;;;;;;5.72;2.90;;;;;;;;;;5015187;28;20428;-89
2023/06/14 05:22:02;;;;;;;5.38;2.45;;;;;;;;;;5001850;28;20036;-90
2023/06/14 05:24:30;;;;;;;6.88;2.50;;;;;;;;;;5017920;28;20021;-90
2023/06/14 05:26:55;;;;;;;6.57;3.00;;;;;;;;;;5028805;28;20013;-89
2023/06/14 05:29:20;;;;;;;6.63;2.60;;;;;;;;;;5027276;28;20020;-90
2023/06/14 05:31:46;;;;;;;5.80;2.83;;;;;;;;;;5031617;28;20430;-90
2023/06/14 05:34:11;;;;;;;8.60;2.78;;;;;;;;;;5017921;28;20014;-88
2023/06/14 05:36:36;;;;;;;6.07;2.70;;;;;;;;;;5017561;28;20034;-89
2023/06/14 05:39:02;;;;;;;6.03;2.67;;;;;;;;;;5030421;28;20044;-90
2023/06/14 05:41:28;;;;;;;6.20;2.70;;;;;;;;;;5028767;28;20028;-89
2023/06/14 05:43:56;;;;;;;9.18;2.85;;;;;;;;;;5026907;28;20017;-90
2023/06/14 05:46:25;;;;;;;8.07;2.83;;;;;;;;;;5026400;28;20088;-89
2023/06/14 05:48:54;;;;;;;6.90;2.65;;;;;;;;;;5019489;28;20052;-89
2023/06/14 05:51:19;;;;;;;9.13;3.45;;;;;;;;;;5023355;28;20017;-88
2023/06/14 05:53:46;;;;;;;4.93;2.60;;;;;;;;;;5031131;28;20383;-88
2023/06/14 05:56:11;;;;;;;7.38;2.30;;;;;;;;;;5028184;28;20048;-89
2023/06/14 05:58:37;;;;;;;6.90;2.72;;;;;;;;;;5026143;28;20026;-90
2023/06/14 06:01:02;;;;;;;5.53;2.72;;;;;;;;;;5021462;28;20430;-90
2023/06/14 06:03:29;;;;;;;5.90;2.63;;;;;;;;;;5027517;28;20021;-90
2023/06/14 06:05:54;;;;;;;8.20;2.72;;;;;;;;;;5012251;28;20046;-88
2023/06/14 06:08:20;;;;;;;5.30;2.20;;;;;;;;;;5001735;28;20358;-90
2023/06/14 06:10:46;;;;;;;5.95;2.58;;;;;;;;;;5008251;28;20376;-89
2023/06/14 06:13:11;;;;;;;4.10;2.20;;;;;;;;;;5007751;28;20018;-91
2023/06/14 06:15:36;;;;;;;4.15;1.95;;;;;;;;;;5005505;28;20040;-91
2023/06/14 06:18:01;;;;;;;5.13;2.50;;;;;;;;;;5005615;28;20101;-90
2023/06/14 06:20:28;;;;;;;4.63;2.20;;;;;;;;;;5005193;28;20037;-90
2023/06/14 06:22:53;;;;;;;7.32;2.47;;;;;;;;;;5013041;28;20105;-91
2023/06/14 06:25:19;;;;;;;5.68;2.20;;;;;;;;;;4989321;28;20122;-91
2023/06/14 06:27:44;;;;;;;8.80;2.60;;;;;;;;;;5011597;28;20021;-88
2023/06/14 06:30:10;;;;;;;6.63;2.17;;;;;;;;;;5005536;28;20029;-90
2023/06/14 06:32:35;;;;;;;6.68;1.98;;;;;;;;;;5003744;28;20048;-91
2023/06/14 06:35:01;;;;;;;4.82;2.20;;;;;;;;;;4989098;28;20099;-90
2023/06/14 06:37:26;;;;;;;4.18;2.33;;;;;;;;;;5006991;28;20388;-90
2023/06/14 06:39:51;;;;;;;4.57;2.20;;;;;;;;;;5005199;28;20026;-90
2023/06/14 06:42:17;;;;;;;4.32;2.33;;;;;;;;;;5013378;28;20029;-89
2023/06/14 06:44:42;;;;;;;4.18;1.88;;;;;;;;;;5013249;28;20592;-90
2023/06/14 06:47:07;;;;;;;6.45;2.17;;;;;;;;;;5023383;28;20080;-91
2023/06/14 06:49:33;;;;;;;3.50;2.05;;;;;;;;;;5017124;28;20041;-92
2023/06/14 06:52:04;;;;;;;4.25;2.28;;;;;;;;;;5032940;28;20028;-89
2023/06/14 06:54:30;;;;;;;4.30;2.33;;;;;;;;;;5030475;28;20678;-90
2023/06/14 06:56:55;;;;;;;4.90;1.85;;;;;;;;;;5023316;28;20109;-90
2023/06/14 06:59:21;;;;;;;6.47;2.25;;;;;;;;;;5017486;28;20121;-90
2023/06/14 07:01:46;;;;;;;3.97;2.05;;;;;;;;;;5025136;28;20052;-89
2023/06/14 07:04:12;;;;;;;7.13;2.05;;;;;;;;;;5039010;28;20033;-90
2023/06/14 07:06:37;;;;;;;4.50;1.67;;;;;;;;;;5021520;28;20057;-89
2023/06/14 07:09:04;;;;;;;5.35;1.92;;;;;;;;;;5046202;28;20017;-89
2023/06/14 07:11:30;;;;;;;4.03;1.73;;;;;;;;;;5039695;28;20435;-91
2023/06/14 07:13:55;;;;;;;2.95;1.70;;;;;;;;;;5042851;28;20064;-92
2023/06/14 07:16:20;;;;;;;5.28;2.00;;;;;;;;;;5051592;28;20021;-91
2023/06/14 07:18:46;;;;;;;6.68;2.20;;;;;;;;;;5041336;28;20108;-91
2023/06/14 07:21:11;;;;;;;5.78;2.10;;;;;;;;;;5048696;28;20456;-92
2023/06/14 07:23:36;;;;;;;4.18;2.00;;;;;;;;;;5052733;28;20431;-91
2023/06/14 07:26:02;;;;;;;3.60;1.70;;;;;;;;;;5040610;28;20026;-91
2023/06/14 07:28:27;;;;;;;6.45;2.03;;;;;;;;;;5043455;28;20494;-91
2023/06/14 07:30:52;;;;;;;7.35;1.77;;;;;;;;;;5039158;28;20048;-90
2023/06/14 07:33:17;;;;;;;4.45;1.75;;;;;;;;;;5043396;28;20028;-91
2023/06/14 07:35:43;;;;;;;4.10;1.75;;;;;;;;;;5050684;28;20546;-91
2023/06/14 07:38:08;;;;;;;3.95;1.75;;;;;;;;;;5035212;28;20059;-91
2023/06/14 07:40:33;;;;;;;3.65;1.40;;;;;;;;;;5055071;28;20028;-90
2023/06/14 07:42:59;;;;;;;4.43;1.70;;;;;;;;;;5054714;28;20021;-90
2023/06/14 07:45:24;;;;;;;5.05;1.70;;;;;;;;;;5054362;28;20107;-90
2023/06/14 07:47:51;;;;;;;5.53;1.83;;;;;;;;;;5033734;28;20029;-90
2023/06/14 07:50:16;;;;;;;3.17;1.45;;;;;;;;;;5050558;28;20106;-91
2023/06/14 07:52:42;;;;;;;3.78;1.90;;;;;;;;;;5034142;28;20068;-90
2023/06/14 07:55:07;;;;;;;3.15;1.40;;;;;;;;;;5050209;28;20025;-90
2023/06/14 07:57:32;;;;;;;4.95;1.42;;;;;;;;;;5033627;28;20063;-89
2023/06/14 07:59:58;;;;;;;2.20;1.17;;;;;;;;;;5059338;28;20017;-91
2023/06/14 08:02:24;;;;;;;3.75;1.35;;;;;;;;;;5034349;28;20055;-88
2023/06/14 08:04:49;;;;;;;4.80;1.75;;;;;;;;;;5052746;28;20048;-89
2023/06/14 08:07:14;;;;;;;2.65;1.27;;;;;;;;;;5053115;28;20025;-92
2023/06/14 08:09:40;;;;;;;2.80;1.40;;;;;;;;;;5031604;28;20021;-91
2023/06/14 08:12:12;;;;;;;3.60;1.65;;;;;;;;;;5051193;28;20021;-91
2023/06/14 08:14:39;;;;;;;3.97;1.65;;;;;;;;;;5053698;28;20045;-91
2023/06/14 08:17:04;;;;;;;2.65;1.15;;;;;;;;;;5053347;28;20092;-91
2023/06/14 08:19:30;;;;;;;4.22;1.55;;;;;;;;;;5052241;28;20486;-91
2023/06/14 08:21:56;;;;;;;4.40;1.25;;;;;;;;;;5052896;28;20083;-93
2023/06/14 08:24:24;;;;;;;6.50;1.60;;;;;;;;;;5058728;28;20493;-91
2023/06/14 08:26:49;;;;;;;2.70;1.35;;;;;;;;;;5051906;28;20490;-90
2023/06/14 08:29:15;;;;;;;2.80;1.35;;;;;;;;;;5050067;28;20025;-90
2023/06/14 08:31:40;;;;;;;4.13;1.50;;;;;;;;;;5039243;28;20037;-90
2023/06/14 08:34:06;;;;;;;4.43;1.38;;;;;;;;;;5053880;28;20155;-91
2023/06/14 08:36:31;;;;;;;3.17;1.60;;;;;;;;;;5053829;28;20079;-90
2023/06/14 08:38:56;;;;;;;3.03;1.30;;;;;;;;;;5051949;28;20524;-90
2023/06/14 08:41:23;;;;;;;3.47;1.48;;;;;;;;;;5041610;28;20041;-90
2023/06/14 08:43:49;;;;;;;4.60;1.45;;;;;;;;;;5055726;28;20021;-91
2023/06/14 08:46:19;;;;;;;2.88;1.40;;;;;;;;;;5033490;28;20027;-90
2023/06/14 08:48:45;;;;;;;3.17;1.60;;;;;;;;;;5052727;28;20078;-91
2023/06/14 08:51:11;;;;;;;3.78;1.60;;;;;;;;;;5034446;28;20021;-91
2023/06/14 08:53:41;;;;;;;4.45;1.70;;;;;;;;;;5054320;28;20005;-91
2023/06/14 08:56:13;;;;;;;2.53;1.30;;;;;;;;;;5054526;28;20422;-92
2023/06/14 08:58:43;;;;;;;;;;;;;;;;;;5054916;28;20455;-91
2023/06/14 09:01:09;;;;;;;3.03;1.08;;;;;;;;;;5052348;28;19913;-90
2023/06/14 09:03:34;;;;;;;5.72;1.42;;;;;;;;;;5043167;28;20176;-90
2023/06/14 09:06:00;;;;;;;2.72;1.33;;;;;;;;;;5034155;28;20484;-91
2023/06/14 09:08:30;;;;;;;3.38;1.48;;;;;;;;;;5048651;28;20390;-91
2023/06/14 09:10:55;;;;;;;2.63;1.42;;;;;;;;;;5052468;28;20017;-90
2023/06/14 09:13:21;;;;;;;3.70;1.58;;;;;;;;;;5054415;28;20024;-92
2023/06/14 09:15:46;;;;;;;3.17;1.55;;;;;;;;;;5032318;28;20025;-91
2023/06/14 09:18:11;;;;;;;5.20;1.70;;;;;;;;;;5054108;28;20020;-90
2023/06/14 09:20:37;;;;;;;3.10;1.05;;;;;;;;;;5051500;28;20029;-92
2023/06/14 09:23:02;;;;;;;4.15;1.85;;;;;;;;;;5053310;28;20059;-90
2023/06/14 09:25:27;;;;;;;2.70;1.52;;;;;;;;;;5053732;28;20044;-91
2023/06/14 09:27:53;;;;;;;2.75;1.50;;;;;;;;;;5053813;28;20020;-92
2023/06/14 09:30:20;;;;;;;2.05;0.98;;;;;;;;;;5050019;28;20406;-90
2023/06/14 09:32:45;;;;;;;4.72;1.30;;;;;;;;;;5027913;28;20037;-91
2023/06/14 09:35:10;;;;;;;4.22;1.42;;;;;;;;;;5034178;28;20067;-89
2023/06/14 09:37:38;;;;;;;2.45;0.98;;;;;;;;;;5034039;28;20045;-91
2023/06/14 09:40:03;;;;;;;3.42;1.40;;;;;;;;;;5054707;28;20027;-91
2023/06/14 09:42:29;;;;;;;4.50;1.38;;;;;;;;;;5046911;28;20050;-94
2023/06/14 09:44:55;;;;;;;4.57;1.77;;;;;;;;;;5052592;28;20048;-92
2023/06/14 09:47:21;;;;;;;2.13;1.08;;;;;;;;;;5053947;28;20017;-93
2023/06/14 09:49:47;;;;;;;3.67;1.40;;;;;;;;;;5062460;28;20416;-91
2023/06/14 09:52:16;;;;;;;3.38;1.40;;;;;;;;;;5069566;27;20025;-96
2023/06/14 09:54:43;;;;;;;3.50;1.20;;;;;;;;;;5055233;28;20013;-96
2023/06/14 09:57:13;;;;;;;4.90;1.27;;;;;;;;;;5062088;28;20028;-94
2023/06/14 09:59:42;;;;;;;1.30;0.68;;;;;;;;;;5064525;28;20052;-95
2023/06/14 10:02:10;;;;;;;2.33;1.10;;;;;;;;;;5060382;28;20090;-93
2023/06/14 10:04:42;;;;;;;4.63;1.40;;;;;;;;;;5076783;28;20116;-95
2023/06/14 10:07:07;;;;;;;;;;;;;;;;;;4968755;28;20097;-65
2023/06/14 10:09:33;;;;;;;1.98;1.10;;;;;;;;;;4972568;28;20328;-66
2023/06/14 10:11:59;;;;;;;3.50;1.40;;;;;;;;;;4968241;28;20015;-66
2023/06/14 10:14:26;;;;;;;3.03;1.33;;;;;;;;;;4967249;28;20074;-68
2023/06/14 10:17:09;;;;;;;1.85;0.90;;;;;;;;;;4970962;28;20026;-68
2023/06/14 10:19:50;;;;;;;4.47;1.30;;;;;;;;;;4974292;28;20110;-68
2023/06/14 10:22:24;;;;;;;2.42;1.00;;;;;;;;;;4970724;28;20065;-68
2023/06/14 10:24:50;;;;;;;5.63;1.35;;;;;;;;;;4968441;28;20035;-67
2023/06/14 10:27:18;;;;;;;4.85;1.23;;;;;;;;;;4970219;28;20500;-67
2023/06/14 10:30:12;;;;;;;4.15;1.60;;;;;;;;;;4967088;28;20035;-67
2023/06/14 10:32:57;;;;;;;4.13;1.35;;;;;;;;;;4974950;28;20038;-68
2023/06/14 10:35:26;;;;;;;2.92;1.30;;;;;;;;;;4965276;28;20445;-67
2023/06/14 10:37:51;;;;;;;3.70;1.65;;;;;;;;;;4964572;28;20019;-69
2023/06/14 10:40:33;;;;;;;3.28;1.42;;;;;;;;;;4969067;28;20058;-68
2023/06/14 10:42:58;;;;;;;;;;;;;;;;;;4967235;28;20015;-69
2023/06/14 10:45:23;;;;;;;3.90;1.67;;;;;;;;;;4972011;28;19918;-68
2023/06/14 10:47:52;;;;;;;4.07;1.42;;;;;;;;;;4969248;28;20285;-68
2023/06/14 10:50:19;;;;;;;3.33;1.45;;;;;;;;;;4966576;28;20392;-68
2023/06/14 10:52:44;;;;;;;3.08;1.23;;;;;;;;;;4971861;28;20473;-67
2023/06/14 10:55:18;;;;;;;2.92;1.40;;;;;;;;;;4971021;28;20125;-69
2023/06/14 10:57:51;;;;;;;4.30;1.10;;;;;;;;;;4969233;28;20503;-68
2023/06/14 11:00:17;;;;;;;2.85;1.30;;;;;;;;;;4970213;28;20019;-68
2023/06/14 11:02:51;;;;;;;2.58;1.30;;;;;;;;;;4969202;28;20106;-72
2023/06/14 13:55:05;;;;;;;4.70;2.55;;;;;;;;;;5009980;28;20041;-72
2023/06/14 13:57:30;;;;;;;7.10;2.30;;;;;;;;;;5029402;28;20068;-74
2023/06/14 14:00:00;;;;;;;6.93;2.10;;;;;;;;;;5031552;28;20651;-73
2023/06/14 14:02:26;;;;;;;3.97;2.30;;;;;;;;;;5029969;28;20062;-73
2023/06/14 14:04:53;;;;;;;4.85;2.33;;;;;;;;;;5031364;28;20029;-73
2023/06/14 14:07:19;;;;;;;4.10;2.10;;;;;;;;;;5030184;28;20033;-73
2023/06/14 14:09:44;;;;;;;4.65;2.40;;;;;;;;;;5030783;28;20079;-73
2023/06/14 14:12:10;;;;;;;4.85;2.30;;;;;;;;;;5029098;28;20033;-73
2023/06/14 14:14:35;;;;;;;3.67;2.13;;;;;;;;;;5030007;28;20024;-73
2023/06/14 14:17:00;;;;;;;4.45;2.03;;;;;;;;;;5017748;28;20050;-72
2023/06/14 14:19:26;;;;;;;5.28;2.42;;;;;;;;;;5022157;28;20075;-73
2023/06/14 14:21:53;;;;;;;6.07;2.00;;;;;;;;;;5026016;28;20070;-74
2023/06/14 14:24:18;;;;;;;3.90;1.92;;;;;;;;;;5013900;28;20132;-74
2023/06/14 14:26:43;;;;;;;3.58;1.95;;;;;;;;;;5032735;28;20112;-73
2023/06/14 14:29:11;;;;;;;4.57;2.00;;;;;;;;;;5023604;28;20471;-74
2023/06/14 14:31:37;;;;;;;3.58;1.98;;;;;;;;;;5030319;28;20028;-73
2023/06/14 14:34:02;;;;;;;3.97;2.10;;;;;;;;;;5032569;28;20017;-73
2023/06/14 14:36:27;;;;;;;6.03;2.13;;;;;;;;;;5032560;28;20068;-73
2023/06/14 14:38:53;;;;;;;7.45;2.60;;;;;;;;;;5031243;28;20029;-74
2023/06/14 14:41:18;;;;;;;4.53;2.10;;;;;;;;;;5027759;28;20053;-73
2023/06/14 14:43:43;;;;;;;4.95;2.35;;;;;;;;;;5035041;28;20021;-72
2023/06/14 14:46:08;;;;;;;4.75;2.13;;;;;;;;;;5035474;28;20026;-72
2023/06/14 14:48:34;;;;;;;5.82;1.98;;;;;;;;;;5036258;28;20022;-73
2023/06/14 14:50:59;;;;;;;7.03;2.80;;;;;;;;;;5027202;28;20056;-73
2023/06/14 14:53:24;;;;;;;6.07;2.20;;;;;;;;;;5036470;28;20017;-73
2023/06/14 14:55:50;;;;;;;8.55;2.15;;;;;;;;;;5034535;28;20514;-73
2023/06/14 14:58:18;;;;;;;3.92;1.98;;;;;;;;;;5033064;28;20018;-72
2023/06/14 15:00:47;;;;;;;9.13;3.15;;;;;;;;;;5034338;28;20499;-72
2023/06/14 15:03:12;;;;;;;3.97;2.20;;;;;;;;;;5035382;28;20104;-72
2023/06/14 15:05:37;;;;;;;6.72;2.30;;;;;;;;;;5034064;28;20108;-73
2023/06/14 15:08:03;;;;;;;6.30;2.38;;;;;;;;;;5035215;28;20485;-72
2023/06/14 15:10:28;;;;;;;5.45;2.67;;;;;;;;;;5033754;28;20515;-73
2023/06/14 15:12:54;;;;;;;5.28;2.50;;;;;;;;;;5031159;28;20111;-73
2023/06/14 15:15:19;;;;;;;3.60;1.98;;;;;;;;;;5033133;28;20373;-73
2023/06/14 15:17:45;;;;;;;4.88;2.95;;;;;;;;;;5034538;28;20490;-73
2023/06/14 15:20:12;;;;;;;3.53;2.10;;;;;;;;;;5036068;28;20511;-73
2023/06/14 15:22:37;;;;;;;7.95;2.40;;;;;;;;;;5033848;28;20056;-74
2023/06/14 15:25:03;;;;;;;8.57;2.80;;;;;;;;;;5026188;28;20025;-75
2023/06/14 15:27:28;;;;;;;3.90;1.92;;;;;;;;;;5025143;28;20014;-74
2023/06/14 15:29:54;;;;;;;6.55;2.30;;;;;;;;;;5033913;28;20030;-75
2023/06/14 15:32:19;;;;;;;4.45;2.00;;;;;;;;;;5030417;28;20029;-74
2023/06/14 15:34:44;;;;;;;4.57;1.83;;;;;;;;;;5025928;28;20047;-74
2023/06/14 15:37:10;;;;;;;7.05;2.22;;;;;;;;;;5031138;28;20345;-74
2023/06/14 15:39:36;;;;;;;7.25;2.30;;;;;;;;;;5031095;28;20479;-75
2023/06/14 15:42:02;;;;;;;4.35;2.00;;;;;;;;;;5032731;28;20082;-75
2023/06/14 15:44:28;;;;;;;7.53;2.05;;;;;;;;;;5029979;28;20142;-74
2023/06/14 15:46:54;;;;;;;4.45;1.95;;;;;;;;;;5034028;28;20527;-74
2023/06/14 15:49:19;;;;;;;3.97;2.22;;;;;;;;;;5027026;28;20036;-74
2023/06/14 15:51:45;;;;;;;5.57;2.10;;;;;;;;;;5030603;28;20030;-74
2023/06/14 15:54:10;;;;;;;5.82;2.00;;;;;;;;;;5028315;28;20026;-74
2023/06/14 15:56:36;;;;;;;5.18;2.30;;;;;;;;;;5033151;28;20571;-74
2023/06/14 15:59:02;;;;;;;5.72;2.20;;;;;;;;;;5031948;28;20116;-74
2023/06/14 16:01:28;;;;;;;5.78;2.55;;;;;;;;;;5025551;28;20053;-73
2023/06/14 16:03:53;;;;;;;12.95;2.28;;;;;;;;;;5028625;28;20523;-74
2023/06/14 16:06:19;;;;;;;6.03;1.98;;;;;;;;;;5032340;28;20029;-74
2023/06/14 16:08:45;;;;;;;4.80;1.90;;;;;;;;;;5031604;28;20017;-73
2023/06/14 16:11:10;;;;;;;3.17;1.80;;;;;;;;;;5033417;28;20432;-74
2023/06/14 16:13:36;;;;;;;4.47;1.90;;;;;;;;;;5032718;28;20087;-73
2023/06/14 16:16:01;;;;;;;9.10;2.33;;;;;;;;;;5034870;28;20026;-74
2023/06/14 16:18:26;;;;;;;5.15;2.10;;;;;;;;;;5029702;28;20434;-75
2023/06/14 16:20:54;;;;;;;6.07;2.10;;;;;;;;;;5032729;28;20489;-74
2023/06/14 16:23:20;;;;;;;6.70;2.15;;;;;;;;;;5031379;28;20017;-74
2023/06/14 16:25:45;;;;;;;7.55;2.28;;;;;;;;;;5032571;28;20025;-73
2023/06/14 16:28:10;;;;;;;5.85;2.10;;;;;;;;;;5001983;28;20452;-73
2023/06/14 16:30:36;;;;;;;4.25;2.17;;;;;;;;;;5017855;28;20030;-73
2023/06/14 16:33:01;;;;;;;4.10;2.30;;;;;;;;;;5027723;28;20031;-73
2023/06/14 16:35:26;;;;;;;4.93;2.38;;;;;;;;;;5025777;28;20515;-72
2023/06/14 16:37:52;;;;;;;8.85;2.40;;;;;;;;;;5030170;28;20029;-73
2023/06/14 16:40:18;;;;;;;5.28;2.00;;;;;;;;;;5032931;28;20466;-73
2023/06/14 16:42:43;;;;;;;5.05;2.20;;;;;;;;;;5032247;28;20092;-73
2023/06/14 16:45:08;;;;;;;6.13;2.55;;;;;;;;;;5031165;28;20542;-73
2023/06/14 16:47:34;;;;;;;6.43;2.17;;;;;;;;;;5029144;28;20039;-73
2023/06/14 16:49:59;;;;;;;9.38;2.95;;;;;;;;;;5032823;28;20025;-73
2023/06/14 16:52:25;;;;;;;5.28;2.20;;;;;;;;;;5027295;28;20052;-72
2023/06/14 16:54:50;;;;;;;4.10;2.08;;;;;;;;;;5032035;28;20036;-71
2023/06/14 16:57:15;;;;;;;5.43;2.40;;;;;;;;;;5031213;28;20540;-72
2023/06/14 16:59:41;;;;;;;3.95;2.10;;;;;;;;;;5027357;28;20033;-72
2023/06/14 17:02:06;;;;;;;4.90;1.90;;;;;;;;;;5023471;28;20017;-71
2023/06/14 17:04:31;;;;;;;7.97;2.30;;;;;;;;;;5026602;28;20391;-71
2023/06/14 17:06:57;;;;;;;4.25;2.10;;;;;;;;;;5030076;28;20068;-71
2023/06/14 17:09:22;;;;;;;6.03;2.10;;;;;;;;;;5031389;28;20026;-71
2023/06/14 17:11:48;;;;;;;7.88;2.60;;;;;;;;;;5033371;28;20047;-71
2023/06/14 17:14:13;;;;;;;6.32;2.30;;;;;;;;;;5032541;28;20360;-71
2023/06/14 17:16:39;;;;;;;5.90;2.50;;;;;;;;;;5030471;28;20163;-71
2023/06/14 17:19:06;;;;;;;8.93;2.30;;;;;;;;;;5028367;28;20124;-71
2023/06/14 17:21:32;;;;;;;4.53;2.10;;;;;;;;;;5020805;28;20049;-72
2023/06/14 17:23:58;;;;;;;4.40;2.45;;;;;;;;;;5022353;28;20515;-71
2023/06/14 17:26:23;;;;;;;6.20;2.40;;;;;;;;;;5032810;28;20025;-71
2023/06/14 17:28:49;;;;;;;6.95;2.13;;;;;;;;;;5024573;28;20032;-70
2023/06/14 17:31:14;;;;;;;5.05;2.28;;;;;;;;;;5022516;28;20132;-71